sensor_id;sensor_type;location;lat;lon;timestamp;pressure;altitude;pressure_sealevel;temperature;humidity
72558;BME280;60583;50.094;8.748;2023-03-20T00:00:36;100610.41;;;10.27;85.74
72558;BME280;60583;50.094;8.748;2023-03-20T00:03:02;100674.09;;;10.64;86.02
72558;BME280;60583;50.094;8.748;2023-03-20T00:05:29;100700.69;;;10.79;85.83
72558;BME280;60583;50.094;8.748;2023-03-20T00:07:56;100701.91;;;10.76;85.92
72558;BME280;60583;50.094;8.748;2023-03-20T00:10:28;100701.59;;;10.65;86.33
72558;BME280;60583;50.094;8.748;2023-03-20T00:12:55;100703.88;;;10.68;85.61
72558;BME280;60583;50.094;8.748;2023-03-20T00:15:25;100673.78;;;10.53;85.78
72558;BME280;60583;50.094;8.748;2023-03-20T00:17:51;100698.38;;;10.69;85.63
72558;BME280;60583;50.094;8.748;2023-03-20T00:20:17;100704.50;;;10.70;85.32
72558;BME280;60583;50.094;8.748;2023-03-20T00:22:43;100699.88;;;10.57;85.92
72558;BME280;60583;50.094;8.748;2023-03-20T00:25:16;100706.13;;;10.64;84.80
72558;BME280;60583;50.094;8.748;2023-03-20T00:27:43;100695.38;;;10.58;84.99
72558;BME280;60583;50.094;8.748;2023-03-20T00:30:25;100717.59;;;10.65;85.37
72558;BME280;60583;50.094;8.748;2023-03-20T00:32:53;100722.53;;;10.68;85.39
72558;BME280;60583;50.094;8.748;2023-03-20T00:35:28;100716.31;;;10.61;85.88
72558;BME280;60583;50.094;8.748;2023-03-20T00:37:55;100721.16;;;10.72;84.74
72558;BME280;60583;50.094;8.748;2023-03-20T00:40:23;100729.16;;;10.72;84.70
72558;BME280;60583;50.094;8.748;2023-03-20T00:42:57;100722.53;;;10.68;84.35
72558;BME280;60583;50.094;8.748;2023-03-20T00:45:23;100673.03;;;10.38;84.38
72558;BME280;60583;50.094;8.748;2023-03-20T00:47:49;100720.66;;;10.62;84.91
72558;BME280;60583;50.094;8.748;2023-03-20T00:50:24;100693.66;;;10.50;84.80
72558;BME280;60583;50.094;8.748;2023-03-20T00:52:50;100716.44;;;10.53;84.87
72558;BME280;60583;50.094;8.748;2023-03-20T00:55:18;100713.63;;;10.40;85.53
72558;BME280;60583;50.094;8.748;2023-03-20T00:57:46;100729.03;;;10.59;85.07
72558;BME280;60583;50.094;8.748;2023-03-20T01:03:18;100725.38;;;10.45;85.20
72558;BME280;60583;50.094;8.748;2023-03-20T01:05:44;100719.16;;;10.38;85.82
72558;BME280;60583;50.094;8.748;2023-03-20T01:08:18;100682.75;;;10.09;85.86
72558;BME280;60583;50.094;8.748;2023-03-20T01:10:45;100723.94;;;10.43;85.98
72558;BME280;60583;50.094;8.748;2023-03-20T01:13:26;100740.81;;;10.50;85.55
72558;BME280;60583;50.094;8.748;2023-03-20T01:15:54;100732.03;;;10.35;86.50
72558;BME280;60583;50.094;8.748;2023-03-20T01:18:23;100726.06;;;10.33;86.35
72558;BME280;60583;50.094;8.748;2023-03-20T01:20:49;100725.34;;;10.39;86.03
72558;BME280;60583;50.094;8.748;2023-03-20T01:23:15;100733.31;;;10.39;86.13
72558;BME280;60583;50.094;8.748;2023-03-20T01:25:41;100745.50;;;10.48;85.63
72558;BME280;60583;50.094;8.748;2023-03-20T01:28:21;100722.78;;;10.31;86.09
72558;BME280;60583;50.094;8.748;2023-03-20T01:30:48;100733.84;;;10.49;85.38
72558;BME280;60583;50.094;8.748;2023-03-20T01:33:20;100716.34;;;10.25;86.11
72558;BME280;60583;50.094;8.748;2023-03-20T01:35:47;100736.38;;;10.36;86.10
72558;BME280;60583;50.094;8.748;2023-03-20T01:38:23;100738.47;;;10.40;85.87
72558;BME280;60583;50.094;8.748;2023-03-20T01:40:55;100731.88;;;10.36;86.30
72558;BME280;60583;50.094;8.748;2023-03-20T01:43:24;100727.09;;;10.32;86.52
72558;BME280;60583;50.094;8.748;2023-03-20T01:45:58;100702.72;;;10.13;86.57
72558;BME280;60583;50.094;8.748;2023-03-20T01:48:35;100737.03;;;10.23;86.57
72558;BME280;60583;50.094;8.748;2023-03-20T01:51:02;100729.81;;;10.17;86.71
72558;BME280;60583;50.094;8.748;2023-03-20T01:53:28;100721.69;;;10.10;87.31
72558;BME280;60583;50.094;8.748;2023-03-20T01:55:57;100726.03;;;10.11;86.93
72558;BME280;60583;50.094;8.748;2023-03-20T01:58:34;100735.94;;;10.17;86.36
72558;BME280;60583;50.094;8.748;2023-03-20T02:01:04;100750.38;;;10.23;87.14
72558;BME280;60583;50.094;8.748;2023-03-20T02:03:32;100730.53;;;10.11;87.37
72558;BME280;60583;50.094;8.748;2023-03-20T02:05:58;100731.34;;;10.11;86.91
72558;BME280;60583;50.094;8.748;2023-03-20T02:08:29;100727.94;;;10.03;87.43
72558;BME280;60583;50.094;8.748;2023-03-20T02:10:57;100735.59;;;10.06;87.94
72558;BME280;60583;50.094;8.748;2023-03-20T02:13:26;100738.25;;;10.06;87.78
72558;BME280;60583;50.094;8.748;2023-03-20T02:15:55;100735.78;;;10.04;87.98
72558;BME280;60583;50.094;8.748;2023-03-20T02:18:21;100739.81;;;10.00;87.92
72558;BME280;60583;50.094;8.748;2023-03-20T02:26:41;100737.09;;;9.79;88.92
72558;BME280;60583;50.094;8.748;2023-03-20T02:32:44;100697.59;;;9.68;88.42
72558;BME280;60583;50.094;8.748;2023-03-20T02:35:54;100749.09;;;9.90;89.09
72558;BME280;60583;50.094;8.748;2023-03-20T02:39:27;100764.28;;;9.89;89.28
72558;BME280;60583;50.094;8.748;2023-03-20T02:42:02;100748.72;;;9.93;89.06
72558;BME280;60583;50.094;8.748;2023-03-20T02:44:42;100740.66;;;9.86;88.87
72558;BME280;60583;50.094;8.748;2023-03-20T02:47:20;100740.13;;;9.76;89.29
72558;BME280;60583;50.094;8.748;2023-03-20T02:52:43;100749.56;;;9.93;88.83
72558;BME280;60583;50.094;8.748;2023-03-20T02:55:32;100735.53;;;9.70;89.24
72558;BME280;60583;50.094;8.748;2023-03-20T02:58:14;100762.88;;;9.93;89.47
72558;BME280;60583;50.094;8.748;2023-03-20T03:01:02;100748.38;;;9.81;89.03
72558;BME280;60583;50.094;8.748;2023-03-20T03:03:37;100768.41;;;9.92;89.84
72558;BME280;60583;50.094;8.748;2023-03-20T03:06:22;100767.22;;;9.94;89.13
72558;BME280;60583;50.094;8.748;2023-03-20T03:11:40;100725.44;;;9.66;89.60
72558;BME280;60583;50.094;8.748;2023-03-20T03:14:14;100704.41;;;9.56;89.46
72558;BME280;60583;50.094;8.748;2023-03-20T03:16:43;100744.81;;;9.74;88.95
72558;BME280;60583;50.094;8.748;2023-03-20T03:19:16;100751.03;;;9.81;89.54
72558;BME280;60583;50.094;8.748;2023-03-20T03:21:45;100752.59;;;9.90;89.19
72558;BME280;60583;50.094;8.748;2023-03-20T03:24:27;100753.16;;;9.86;89.93
72558;BME280;60583;50.094;8.748;2023-03-20T03:26:55;100755.63;;;9.87;89.79
72558;BME280;60583;50.094;8.748;2023-03-20T03:29:22;100765.47;;;9.87;89.32
72558;BME280;60583;50.094;8.748;2023-03-20T03:31:49;100763.50;;;9.95;89.28
72558;BME280;60583;50.094;8.748;2023-03-20T03:34:17;100762.41;;;9.90;89.71
72558;BME280;60583;50.094;8.748;2023-03-20T03:37:04;100764.53;;;9.94;89.60
72558;BME280;60583;50.094;8.748;2023-03-20T03:39:38;100773.81;;;9.98;89.54
72558;BME280;60583;50.094;8.748;2023-03-20T03:42:13;100708.63;;;9.65;89.21
72558;BME280;60583;50.094;8.748;2023-03-20T03:44:54;100758.19;;;9.95;89.33
72558;BME280;60583;50.094;8.748;2023-03-20T03:47:35;100760.28;;;10.00;89.32
72558;BME280;60583;50.094;8.748;2023-03-20T03:50:13;100771.50;;;9.95;89.64
72558;BME280;60583;50.094;8.748;2023-03-20T03:52:40;100768.00;;;9.95;89.42
72558;BME280;60583;50.094;8.748;2023-03-20T03:55:15;100768.84;;;9.95;89.79
72558;BME280;60583;50.094;8.748;2023-03-20T03:58:03;100781.06;;;10.04;89.23
72558;BME280;60583;50.094;8.748;2023-03-20T04:00:31;100764.16;;;9.97;88.96
72558;BME280;60583;50.094;8.748;2023-03-20T04:02:58;100772.69;;;10.07;88.36
72558;BME280;60583;50.094;8.748;2023-03-20T04:05:27;100796.97;;;10.12;88.79
72558;BME280;60583;50.094;8.748;2023-03-20T04:07:58;100745.25;;;9.78;88.55
72558;BME280;60583;50.094;8.748;2023-03-20T04:10:24;100782.44;;;10.00;89.08
72558;BME280;60583;50.094;8.748;2023-03-20T04:12:49;100787.22;;;9.90;89.54
72558;BME280;60583;50.094;8.748;2023-03-20T04:15:16;100742.31;;;9.73;89.33
72558;BME280;60583;50.094;8.748;2023-03-20T04:17:42;100765.25;;;10.03;88.79
72558;BME280;60583;50.094;8.748;2023-03-20T04:20:09;100771.41;;;10.03;88.43
72558;BME280;60583;50.094;8.748;2023-03-20T04:22:35;100774.72;;;10.05;88.83
72558;BME280;60583;50.094;8.748;2023-03-20T04:25:01;100771.88;;;9.92;89.16
72558;BME280;60583;50.094;8.748;2023-03-20T04:27:28;100788.31;;;9.96;89.38
72558;BME280;60583;50.094;8.748;2023-03-20T04:29:54;100776.00;;;9.95;89.49
72558;BME280;60583;50.094;8.748;2023-03-20T04:32:19;100786.41;;;10.04;89.24
72558;BME280;60583;50.094;8.748;2023-03-20T04:34:45;100776.56;;;9.90;89.44
72558;BME280;60583;50.094;8.748;2023-03-20T04:37:11;100785.94;;;9.86;90.27
72558;BME280;60583;50.094;8.748;2023-03-20T04:39:37;100803.75;;;10.00;90.23
72558;BME280;60583;50.094;8.748;2023-03-20T04:42:03;100807.34;;;9.93;90.34
72558;BME280;60583;50.094;8.748;2023-03-20T04:44:29;100764.19;;;9.68;90.04
72558;BME280;60583;50.094;8.748;2023-03-20T04:46:55;100780.97;;;9.83;90.45
72558;BME280;60583;50.094;8.748;2023-03-20T04:49:20;100801.72;;;10.02;89.15
72558;BME280;60583;50.094;8.748;2023-03-20T04:51:46;100805.41;;;10.01;89.46
72558;BME280;60583;50.094;8.748;2023-03-20T04:54:11;100802.28;;;9.98;89.64
72558;BME280;60583;50.094;8.748;2023-03-20T04:56:37;100825.97;;;10.07;89.96
72558;BME280;60583;50.094;8.748;2023-03-20T04:59:02;100802.66;;;9.95;90.07
72558;BME280;60583;50.094;8.748;2023-03-20T05:01:28;100799.19;;;9.94;89.48
72558;BME280;60583;50.094;8.748;2023-03-20T05:03:53;100811.19;;;10.05;89.66
72558;BME280;60583;50.094;8.748;2023-03-20T05:06:26;100822.59;;;9.99;89.94
72558;BME280;60583;50.094;8.748;2023-03-20T05:08:51;100813.28;;;9.95;89.69
72558;BME280;60583;50.094;8.748;2023-03-20T05:11:17;100792.56;;;9.76;90.07
72558;BME280;60583;50.094;8.748;2023-03-20T05:13:42;100826.63;;;9.95;90.47
72558;BME280;60583;50.094;8.748;2023-03-20T05:16:08;100788.41;;;9.88;89.38
72558;BME280;60583;50.094;8.748;2023-03-20T05:18:33;100813.13;;;10.11;89.00
72558;BME280;60583;50.094;8.748;2023-03-20T05:20:59;100770.06;;;9.78;89.38
72558;BME280;60583;50.094;8.748;2023-03-20T05:23:25;100816.72;;;10.03;90.24
72558;BME280;60583;50.094;8.748;2023-03-20T05:25:51;100723.13;;;9.48;89.87
72558;BME280;60583;50.094;8.748;2023-03-20T05:28:16;100818.09;;;9.99;90.45
72558;BME280;60583;50.094;8.748;2023-03-20T05:30:42;100799.63;;;9.98;90.25
72558;BME280;60583;50.094;8.748;2023-03-20T05:33:07;100777.69;;;9.81;90.49
72558;BME280;60583;50.094;8.748;2023-03-20T05:35:33;100795.03;;;9.92;90.78
72558;BME280;60583;50.094;8.748;2023-03-20T05:37:58;100800.81;;;9.95;91.21
72558;BME280;60583;50.094;8.748;2023-03-20T05:40:25;100761.88;;;9.65;91.02
72558;BME280;60583;50.094;8.748;2023-03-20T05:42:50;100784.47;;;9.69;92.07
72558;BME280;60583;50.094;8.748;2023-03-20T05:45:17;100803.00;;;9.77;91.92
72558;BME280;60583;50.094;8.748;2023-03-20T05:47:43;100762.91;;;9.64;91.75
72558;BME280;60583;50.094;8.748;2023-03-20T05:50:10;100783.00;;;9.81;91.07
72558;BME280;60583;50.094;8.748;2023-03-20T05:52:35;100801.44;;;9.97;90.63
72558;BME280;60583;50.094;8.748;2023-03-20T05:55:01;100812.38;;;10.02;90.72
72558;BME280;60583;50.094;8.748;2023-03-20T05:57:26;100813.91;;;10.19;90.29
72558;BME280;60583;50.094;8.748;2023-03-20T05:59:52;100802.47;;;9.96;90.45
72558;BME280;60583;50.094;8.748;2023-03-20T06:02:18;100802.00;;;9.93;90.87
72558;BME280;60583;50.094;8.748;2023-03-20T06:04:43;100803.56;;;9.87;90.40
72558;BME280;60583;50.094;8.748;2023-03-20T06:07:08;100823.03;;;10.02;90.63
72558;BME280;60583;50.094;8.748;2023-03-20T06:09:34;100807.06;;;10.02;90.42
72558;BME280;60583;50.094;8.748;2023-03-20T06:12:00;100810.66;;;10.09;90.07
72558;BME280;60583;50.094;8.748;2023-03-20T06:14:25;100813.03;;;10.04;90.20
72558;BME280;60583;50.094;8.748;2023-03-20T06:16:51;100797.03;;;9.90;90.53
72558;BME280;60583;50.094;8.748;2023-03-20T06:19:19;100820.00;;;10.05;90.22
72558;BME280;60583;50.094;8.748;2023-03-20T06:21:44;100807.72;;;10.04;89.66
72558;BME280;60583;50.094;8.748;2023-03-20T06:24:10;100774.75;;;9.76;90.58
72558;BME280;60583;50.094;8.748;2023-03-20T06:26:36;100815.44;;;9.99;90.43
72558;BME280;60583;50.094;8.748;2023-03-20T06:29:01;100825.25;;;9.99;91.02
72558;BME280;60583;50.094;8.748;2023-03-20T06:31:27;100826.81;;;9.93;91.38
72558;BME280;60583;50.094;8.748;2023-03-20T06:33:53;100826.88;;;10.00;90.80
72558;BME280;60583;50.094;8.748;2023-03-20T06:36:18;100777.97;;;9.72;91.10
72558;BME280;60583;50.094;8.748;2023-03-20T06:38:44;100746.91;;;9.49;91.83
72558;BME280;60583;50.094;8.748;2023-03-20T06:41:10;100805.59;;;9.85;91.23
72558;BME280;60583;50.094;8.748;2023-03-20T06:43:35;100844.34;;;10.02;91.55
72558;BME280;60583;50.094;8.748;2023-03-20T06:46:01;100842.50;;;10.03;91.78
72558;BME280;60583;50.094;8.748;2023-03-20T06:48:27;100786.13;;;9.70;91.65
72558;BME280;60583;50.094;8.748;2023-03-20T06:50:52;100840.31;;;10.06;90.85
72558;BME280;60583;50.094;8.748;2023-03-20T06:53:18;100838.41;;;10.15;90.70
72558;BME280;60583;50.094;8.748;2023-03-20T06:55:50;100828.47;;;10.09;90.44
72558;BME280;60583;50.094;8.748;2023-03-20T06:58:16;100849.44;;;10.27;90.11
72558;BME280;60583;50.094;8.748;2023-03-20T07:00:42;100847.22;;;10.15;90.15
72558;BME280;60583;50.094;8.748;2023-03-20T07:03:08;100810.09;;;9.99;90.43
72558;BME280;60583;50.094;8.748;2023-03-20T07:05:34;100852.47;;;10.23;90.07
72558;BME280;60583;50.094;8.748;2023-03-20T07:08:00;100840.53;;;10.19;90.18
72558;BME280;60583;50.094;8.748;2023-03-20T07:10:26;100853.75;;;10.27;89.83
72558;BME280;60583;50.094;8.748;2023-03-20T07:12:52;100860.94;;;10.27;89.53
72558;BME280;60583;50.094;8.748;2023-03-20T07:15:18;100842.34;;;10.04;90.68
72558;BME280;60583;50.094;8.748;2023-03-20T07:17:44;100854.22;;;10.16;90.19
72558;BME280;60583;50.094;8.748;2023-03-20T07:20:10;100833.53;;;9.89;90.87
72558;BME280;60583;50.094;8.748;2023-03-20T07:22:35;100789.97;;;9.82;90.02
72558;BME280;60583;50.094;8.748;2023-03-20T07:25:01;100845.66;;;10.06;90.95
72558;BME280;60583;50.094;8.748;2023-03-20T07:27:27;100852.63;;;10.07;90.83
72558;BME280;60583;50.094;8.748;2023-03-20T07:29:52;100833.34;;;10.05;90.80
72558;BME280;60583;50.094;8.748;2023-03-20T07:32:18;100864.97;;;10.23;90.87
72558;BME280;60583;50.094;8.748;2023-03-20T07:34:45;100863.13;;;10.09;92.58
72558;BME280;60583;50.094;8.748;2023-03-20T07:37:12;100875.06;;;10.27;92.07
72558;BME280;60583;50.094;8.748;2023-03-20T07:39:37;100865.16;;;10.21;92.60
72558;BME280;60583;50.094;8.748;2023-03-20T07:42:03;100879.31;;;10.37;92.02
72558;BME280;60583;50.094;8.748;2023-03-20T07:44:28;100880.94;;;10.38;91.80
72558;BME280;60583;50.094;8.748;2023-03-20T07:46:54;100806.13;;;9.95;91.58
72558;BME280;60583;50.094;8.748;2023-03-20T07:49:20;100865.72;;;10.32;91.63
72558;BME280;60583;50.094;8.748;2023-03-20T07:51:47;100784.75;;;9.74;91.57
72558;BME280;60583;50.094;8.748;2023-03-20T07:54:14;100870.41;;;10.30;91.70
72558;BME280;60583;50.094;8.748;2023-03-20T07:56:40;100841.59;;;10.10;91.41
72558;BME280;60583;50.094;8.748;2023-03-20T07:59:06;100886.47;;;10.36;91.96
72558;BME280;60583;50.094;8.748;2023-03-20T08:01:31;100877.03;;;10.19;92.16
72558;BME280;60583;50.094;8.748;2023-03-20T08:03:57;100817.28;;;9.84;91.28
72558;BME280;60583;50.094;8.748;2023-03-20T08:06:22;100880.97;;;10.23;91.43
72558;BME280;60583;50.094;8.748;2023-03-20T08:08:48;100841.16;;;10.07;91.51
72558;BME280;60583;50.094;8.748;2023-03-20T08:11:17;100888.31;;;10.36;91.51
72558;BME280;60583;50.094;8.748;2023-03-20T08:13:44;100890.41;;;10.40;91.73
72558;BME280;60583;50.094;8.748;2023-03-20T08:16:10;100877.94;;;10.26;91.95
72558;BME280;60583;50.094;8.748;2023-03-20T08:18:36;100865.59;;;10.25;91.67
72558;BME280;60583;50.094;8.748;2023-03-20T08:21:01;100878.56;;;10.43;90.77
72558;BME280;60583;50.094;8.748;2023-03-20T08:23:27;100894.66;;;10.49;90.95
72558;BME280;60583;50.094;8.748;2023-03-20T08:25:52;100886.28;;;10.38;91.51
72558;BME280;60583;50.094;8.748;2023-03-20T08:28:22;100910.81;;;10.48;91.56
72558;BME280;60583;50.094;8.748;2023-03-20T08:30:48;100914.59;;;10.39;92.99
72558;BME280;60583;50.094;8.748;2023-03-20T08:33:15;100911.38;;;10.43;92.43
72558;BME280;60583;50.094;8.748;2023-03-20T08:35:41;100919.44;;;10.50;92.45
72558;BME280;60583;50.094;8.748;2023-03-20T08:38:12;100920.56;;;10.41;92.64
72558;BME280;60583;50.094;8.748;2023-03-20T08:40:40;100919.19;;;10.45;92.53
72558;BME280;60583;50.094;8.748;2023-03-20T08:43:06;100903.38;;;10.29;92.65
72558;BME280;60583;50.094;8.748;2023-03-20T08:45:32;100921.22;;;10.28;93.47
72558;BME280;60583;50.094;8.748;2023-03-20T08:47:58;100909.88;;;10.11;94.98
72558;BME280;60583;50.094;8.748;2023-03-20T08:50:23;100896.00;;;10.01;94.79
72558;BME280;60583;50.094;8.748;2023-03-20T08:52:49;100912.91;;;10.08;95.64
72558;BME280;60583;50.094;8.748;2023-03-20T08:55:15;100921.44;;;10.04;96.46
72558;BME280;60583;50.094;8.748;2023-03-20T08:57:41;100895.16;;;9.86;96.96
72558;BME280;60583;50.094;8.748;2023-03-20T09:00:08;100915.00;;;9.98;97.56
72558;BME280;60583;50.094;8.748;2023-03-20T09:02:36;100898.16;;;9.83;98.45
72558;BME280;60583;50.094;8.748;2023-03-20T09:05:01;100887.88;;;9.80;97.39
72558;BME280;60583;50.094;8.748;2023-03-20T09:07:27;100904.31;;;9.84;98.29
72558;BME280;60583;50.094;8.748;2023-03-20T09:09:52;100917.75;;;9.90;99.02
72558;BME280;60583;50.094;8.748;2023-03-20T09:12:18;100923.56;;;10.08;98.01
72558;BME280;60583;50.094;8.748;2023-03-20T09:14:43;100915.88;;;10.13;96.42
72558;BME280;60583;50.094;8.748;2023-03-20T09:17:09;100877.50;;;9.85;97.17
72558;BME280;60583;50.094;8.748;2023-03-20T09:19:35;100914.59;;;10.24;96.26
72558;BME280;60583;50.094;8.748;2023-03-20T09:22:04;100936.66;;;10.33;95.99
72558;BME280;60583;50.094;8.748;2023-03-20T09:24:30;100912.31;;;10.21;96.07
72558;BME280;60583;50.094;8.748;2023-03-20T09:26:55;100904.72;;;10.10;96.68
72558;BME280;60583;50.094;8.748;2023-03-20T09:29:21;100908.75;;;10.06;97.34
72558;BME280;60583;50.094;8.748;2023-03-20T09:31:46;100918.00;;;10.18;96.48
72558;BME280;60583;50.094;8.748;2023-03-20T09:34:12;100931.16;;;10.19;97.01
72558;BME280;60583;50.094;8.748;2023-03-20T09:36:37;100915.94;;;10.05;97.24
72558;BME280;60583;50.094;8.748;2023-03-20T09:39:03;100944.38;;;10.27;96.43
72558;BME280;60583;50.094;8.748;2023-03-20T09:41:29;100933.81;;;10.19;97.22
72558;BME280;60583;50.094;8.748;2023-03-20T09:44:30;100944.91;;;10.23;97.02
72558;BME280;60583;50.094;8.748;2023-03-20T09:47:16;100941.81;;;10.34;97.69
72558;BME280;60583;50.094;8.748;2023-03-20T09:49:51;100946.59;;;10.39;96.59
72558;BME280;60583;50.094;8.748;2023-03-20T09:52:25;100929.94;;;10.66;95.35
72558;BME280;60583;50.094;8.748;2023-03-20T09:55:12;100935.88;;;10.97;94.15
72558;BME280;60583;50.094;8.748;2023-03-20T09:57:55;100942.78;;;11.27;92.89
72558;BME280;60583;50.094;8.748;2023-03-20T10:00:27;100904.25;;;11.36;91.72
72558;BME280;60583;50.094;8.748;2023-03-20T10:03:05;100914.56;;;11.82;89.41
72558;BME280;60583;50.094;8.748;2023-03-20T10:05:43;100924.53;;;11.94;88.82
72558;BME280;60583;50.094;8.748;2023-03-20T10:08:12;100901.41;;;11.80;88.73
72558;BME280;60583;50.094;8.748;2023-03-20T10:13:40;100949.75;;;13.29;82.93
72558;BME280;60583;50.094;8.748;2023-03-20T10:16:18;100929.78;;;13.58;80.81
72558;BME280;60583;50.094;8.748;2023-03-20T10:21:48;100893.63;;;15.65;70.25
72558;BME280;60583;50.094;8.748;2023-03-20T10:24:30;100930.56;;;15.76;68.57
72558;BME280;60583;50.094;8.748;2023-03-20T10:27:05;100938.66;;;14.37;73.94
72558;BME280;60583;50.094;8.748;2023-03-20T10:32:37;100937.84;;;13.51;78.05
72558;BME280;60583;50.094;8.748;2023-03-20T10:35:16;100940.84;;;14.66;72.98
72558;BME280;60583;50.094;8.748;2023-03-20T10:37:58;100944.88;;;13.91;74.17
72558;BME280;60583;50.094;8.748;2023-03-20T10:40:31;100939.28;;;14.39;73.97
72558;BME280;60583;50.094;8.748;2023-03-20T10:43:16;100932.22;;;14.51;73.29
72558;BME280;60583;50.094;8.748;2023-03-20T10:45:57;100922.63;;;15.57;70.25
72558;BME280;60583;50.094;8.748;2023-03-20T10:48:32;100922.13;;;15.73;67.79
72558;BME280;60583;50.094;8.748;2023-03-20T10:51:01;100918.34;;;15.11;68.86
72558;BME280;60583;50.094;8.748;2023-03-20T10:53:31;100909.13;;;15.63;67.58
72558;BME280;60583;50.094;8.748;2023-03-20T10:56:02;100896.03;;;15.49;68.62
72558;BME280;60583;50.094;8.748;2023-03-20T10:58:34;100903.22;;;16.04;64.58
72558;BME280;60583;50.094;8.748;2023-03-20T11:01:01;100899.22;;;16.49;63.84
72558;BME280;60583;50.094;8.748;2023-03-20T11:03:30;100896.00;;;16.95;61.91
72558;BME280;60583;50.094;8.748;2023-03-20T11:06:07;100872.66;;;15.49;63.33
72558;BME280;60583;50.094;8.748;2023-03-20T11:08:42;100867.41;;;15.29;63.62
72558;BME280;60583;50.094;8.748;2023-03-20T11:11:10;100896.72;;;15.38;62.64
72558;BME280;60583;50.094;8.748;2023-03-20T11:13:41;100860.38;;;14.53;64.32
72558;BME280;60583;50.094;8.748;2023-03-20T11:16:18;100896.13;;;14.40;66.04
72558;BME280;60583;50.094;8.748;2023-03-20T11:18:45;100867.09;;;14.04;67.20
72558;BME280;60583;50.094;8.748;2023-03-20T11:21:30;100906.47;;;14.24;67.72
72558;BME280;60583;50.094;8.748;2023-03-20T11:23:55;100850.63;;;13.81;67.12
72558;BME280;60583;50.094;8.748;2023-03-20T11:26:41;100901.69;;;15.65;62.79
72558;BME280;60583;50.094;8.748;2023-03-20T11:29:18;100876.59;;;15.15;61.76
72558;BME280;60583;50.094;8.748;2023-03-20T11:31:46;100865.59;;;14.28;64.26
72558;BME280;60583;50.094;8.748;2023-03-20T11:36:56;100860.09;;;13.90;66.29
72558;BME280;60583;50.094;8.748;2023-03-20T11:39:23;100886.44;;;14.33;65.96
72558;BME280;60583;50.094;8.748;2023-03-20T11:41:52;100880.19;;;15.65;62.41
72558;BME280;60583;50.094;8.748;2023-03-20T11:47:00;100887.34;;;14.71;63.41
72558;BME280;60583;50.094;8.748;2023-03-20T11:49:28;100887.56;;;14.69;63.94
72558;BME280;60583;50.094;8.748;2023-03-20T11:52:16;100875.50;;;14.28;64.69
72558;BME280;60583;50.094;8.748;2023-03-20T11:54:47;100874.84;;;14.96;62.88
72558;BME280;60583;50.094;8.748;2023-03-20T11:57:42;100876.13;;;15.18;62.20
72558;BME280;60583;50.094;8.748;2023-03-20T12:02:35;100847.00;;;15.22;61.30
72558;BME280;60583;50.094;8.748;2023-03-20T12:08:00;100853.22;;;15.72;59.89
72558;BME280;60583;50.094;8.748;2023-03-20T12:10:31;100846.41;;;15.45;60.64
72558;BME280;60583;50.094;8.748;2023-03-20T12:13:03;100841.50;;;16.64;57.04
72558;BME280;60583;50.094;8.748;2023-03-20T12:15:33;100843.41;;;17.46;55.82
72558;BME280;60583;50.094;8.748;2023-03-20T12:18:16;100846.06;;;16.63;56.17
72558;BME280;60583;50.094;8.748;2023-03-20T12:21:07;100845.78;;;15.49;58.71
72558;BME280;60583;50.094;8.748;2023-03-20T12:29:47;100829.31;;;14.13;65.32
72558;BME280;60583;50.094;8.748;2023-03-20T12:32:35;100826.69;;;13.99;65.82
72558;BME280;60583;50.094;8.748;2023-03-20T12:35:18;100814.53;;;13.97;66.65
72558;BME280;60583;50.094;8.748;2023-03-20T12:37:47;100786.72;;;13.72;66.65
72558;BME280;60583;50.094;8.748;2023-03-20T12:40:15;100816.94;;;14.05;66.79
72558;BME280;60583;50.094;8.748;2023-03-20T12:42:57;100821.25;;;14.32;66.37
72558;BME280;60583;50.094;8.748;2023-03-20T12:45:32;100808.88;;;14.31;65.97
72558;BME280;60583;50.094;8.748;2023-03-20T12:48:38;100808.03;;;14.18;66.32
72558;BME280;60583;50.094;8.748;2023-03-20T12:51:22;100802.09;;;14.09;66.42
72558;BME280;60583;50.094;8.748;2023-03-20T12:54:25;100805.66;;;13.96;66.25
72558;BME280;60583;50.094;8.748;2023-03-20T13:00:04;100787.53;;;13.79;66.19
72558;BME280;60583;50.094;8.748;2023-03-20T13:03:05;100794.13;;;13.89;66.18
72558;BME280;60583;50.094;8.748;2023-03-20T13:05:43;100743.84;;;13.65;66.37
72558;BME280;60583;50.094;8.748;2023-03-20T13:11:01;100730.59;;;13.83;66.40
72558;BME280;60583;50.094;8.748;2023-03-20T13:13:39;100789.84;;;14.33;66.14
72558;BME280;60583;50.094;8.748;2023-03-20T13:16:19;100735.06;;;14.02;64.47
72558;BME280;60583;50.094;8.748;2023-03-20T13:19:06;100751.09;;;14.22;63.66
72558;BME280;60583;50.094;8.748;2023-03-20T13:24:46;100766.31;;;14.41;62.38
72558;BME280;60583;50.094;8.748;2023-03-20T13:33:03;100765.28;;;14.36;61.69
72558;BME280;60583;50.094;8.748;2023-03-20T13:35:34;100736.53;;;13.98;61.54
72558;BME280;60583;50.094;8.748;2023-03-20T13:38:25;100765.81;;;14.06;61.66
72558;BME280;60583;50.094;8.748;2023-03-20T13:40:59;100756.31;;;13.97;60.87
72558;BME280;60583;50.094;8.748;2023-03-20T13:43:27;100763.97;;;14.00;60.51
72558;BME280;60583;50.094;8.748;2023-03-20T13:48:41;100763.28;;;14.18;60.82
72558;BME280;60583;50.094;8.748;2023-03-20T13:51:28;100738.38;;;13.98;60.15
72558;BME280;60583;50.094;8.748;2023-03-20T13:59:41;100759.19;;;14.02;57.15
72558;BME280;60583;50.094;8.748;2023-03-20T14:05:09;100752.63;;;13.98;55.10
72558;BME280;60583;50.094;8.748;2023-03-20T14:07:37;100759.00;;;13.97;55.46
72558;BME280;60583;50.094;8.748;2023-03-20T14:12:48;100713.75;;;13.63;53.10
72558;BME280;60583;50.094;8.748;2023-03-20T14:15:14;100752.06;;;13.83;52.82
72558;BME280;60583;50.094;8.748;2023-03-20T14:17:45;100747.53;;;13.77;52.86
72558;BME280;60583;50.094;8.748;2023-03-20T14:20:21;100752.47;;;13.80;52.34
72558;BME280;60583;50.094;8.748;2023-03-20T14:22:51;100738.47;;;13.78;53.24